createdAt,value
2022-11-08T00:00:12.896Z,96.38
2022-11-08T00:05:54.475Z,96.81
2022-11-08T00:11:36.079Z,96.54
2022-11-08T00:16:58.307Z,97.15
2022-11-08T00:22:21.198Z,97.30
2022-11-08T00:27:44.048Z,97.17
2022-11-08T00:33:06.211Z,97.04
2022-11-08T00:38:29.035Z,96.61
2022-11-08T00:43:51.252Z,95.86
2022-11-08T00:49:14.111Z,95.64
2022-11-08T00:54:37.815Z,95.31
2022-11-08T01:00:00.021Z,94.85
2022-11-08T01:05:22.423Z,94.95
2022-11-08T01:10:46.407Z,94.75
2022-11-08T01:16:16.095Z,94.48
2022-11-08T01:21:39.474Z,94.23
2022-11-08T01:27:03.221Z,93.97
2022-11-08T01:32:25.524Z,93.69
2022-11-08T01:37:48.113Z,93.56
2022-11-08T01:43:15.120Z,93.54
2022-11-08T01:48:39.388Z,93.64
2022-11-08T01:54:21.281Z,93.45
2022-11-08T01:59:45.154Z,94.09
2022-11-08T02:05:07.933Z,94.04
2022-11-08T02:10:32.164Z,94.28
2022-11-08T02:15:55.187Z,94.21
2022-11-08T02:21:34.347Z,94.50
2022-11-08T02:26:58.471Z,94.33
2022-11-08T02:32:22.184Z,94.21
2022-11-08T02:37:44.926Z,94.33
2022-11-08T02:43:07.089Z,94.58
2022-11-08T02:48:30.205Z,95.20
2022-11-08T02:53:53.572Z,96.67
2022-11-08T02:59:15.750Z,97.78
2022-11-08T03:04:38.256Z,97.94
2022-11-08T03:10:00.467Z,97.81
2022-11-08T03:15:25.164Z,97.71
2022-11-08T03:20:47.497Z,97.57
2022-11-08T03:26:10.916Z,97.70
2022-11-08T03:31:34.009Z,97.70
2022-11-08T03:36:56.422Z,97.84
2022-11-08T03:42:19.381Z,97.38
2022-11-08T03:47:45.313Z,96.61
2022-11-08T03:53:09.214Z,96.23
2022-11-08T03:58:31.854Z,95.94
2022-11-08T04:03:54.039Z,95.91
2022-11-08T04:09:20.397Z,96.27
2022-11-08T04:14:58.093Z,96.45
2022-11-08T04:20:39.099Z,95.85
2022-11-08T04:26:04.272Z,95.55
2022-11-08T04:31:32.346Z,95.05
2022-11-08T04:36:54.797Z,94.53
2022-11-08T04:42:17.503Z,93.71
2022-11-08T04:47:45.742Z,93.18
2022-11-08T04:53:07.831Z,92.95
2022-11-08T04:58:30.081Z,92.84
2022-11-08T05:03:53.271Z,93.05
2022-11-08T05:09:16.441Z,93.02
2022-11-08T05:14:39.352Z,93.11
2022-11-08T05:20:19.369Z,93.20
2022-11-08T05:25:44.228Z,93.80
2022-11-08T05:31:12.851Z,94.59
2022-11-08T05:36:36.236Z,94.83
2022-11-08T05:41:59.100Z,95.69
2022-11-08T05:47:21.424Z,96.28
2022-11-08T05:52:43.699Z,95.99
2022-11-08T05:58:06.099Z,96.04
2022-11-08T06:03:28.677Z,95.85
2022-11-08T06:08:53.338Z,95.34
2022-11-08T06:14:16.196Z,95.15
2022-11-08T06:19:38.360Z,94.87
2022-11-08T06:25:00.557Z,95.20
2022-11-08T06:30:23.877Z,95.61
2022-11-08T06:35:46.128Z,95.22
2022-11-08T06:41:09.855Z,94.74
2022-11-08T06:46:32.386Z,94.25
2022-11-08T06:51:54.590Z,93.78
2022-11-08T06:57:16.805Z,93.38
2022-11-08T07:02:39.263Z,93.02
2022-11-08T07:08:03.550Z,92.75
2022-11-08T07:13:27.415Z,92.20
2022-11-08T07:18:51.307Z,91.51
2022-11-08T07:24:13.710Z,90.08
2022-11-08T07:29:36.025Z,88.49
2022-11-08T07:34:58.209Z,87.35
2022-11-08T07:40:21.162Z,86.74
2022-11-08T07:45:43.943Z,86.10
2022-11-08T07:51:07.410Z,86.00
2022-11-08T07:56:29.734Z,86.14
2022-11-08T08:01:52.015Z,86.15
2022-11-08T08:07:14.669Z,85.61
2022-11-08T08:12:37.365Z,84.86
2022-11-08T08:17:59.586Z,83.97
2022-11-08T08:23:21.792Z,82.95
2022-11-08T08:28:43.988Z,82.23
2022-11-08T08:34:06.173Z,81.22
2022-11-08T08:39:28.511Z,80.76
2022-11-08T08:44:50.688Z,80.09
2022-11-08T08:50:13.183Z,79.15
2022-11-08T08:55:36.622Z,78.85
2022-11-08T09:06:23.216Z,78.18
2022-11-08T09:11:45.409Z,78.21
2022-11-08T09:17:08.800Z,77.71
2022-11-08T09:22:31.577Z,76.32
2022-11-08T09:27:54.475Z,76.61
2022-11-08T09:33:17.763Z,75.86
2022-11-08T09:38:42.196Z,76.05
2022-11-08T09:44:40.501Z,75.57
2022-11-08T09:50:28.067Z,76.01
2022-11-08T09:56:20.403Z,75.87
2022-11-08T10:01:44.319Z,75.47
2022-11-08T10:07:20.588Z,72.98
2022-11-08T10:13:18.643Z,69.75
2022-11-08T10:19:03.460Z,68.62
2022-11-08T10:24:55.431Z,67.40
2022-11-08T10:30:27.608Z,68.73
2022-11-08T10:36:33.384Z,68.57
2022-11-08T10:42:24.706Z,66.86
2022-11-08T10:47:50.721Z,66.31
2022-11-08T10:53:17.940Z,67.07
2022-11-08T10:58:59.808Z,66.85
2022-11-08T11:04:35.915Z,65.73
2022-11-08T11:09:58.132Z,64.12
2022-11-08T11:15:28.809Z,64.01
2022-11-08T11:21:07.902Z,63.53
2022-11-08T11:26:56.104Z,65.97
2022-11-08T11:32:41.595Z,65.59
2022-11-08T11:38:08.362Z,62.66
2022-11-08T11:43:43.049Z,61.14
2022-11-08T11:49:08.955Z,63.41
2022-11-08T11:54:35.313Z,63.41
2022-11-08T12:00:19.864Z,62.06
2022-11-08T12:06:01.911Z,62.77
2022-11-08T12:11:32.154Z,63.66
2022-11-08T12:17:27.148Z,62.54
2022-11-08T12:22:57.632Z,64.26
2022-11-08T12:28:47.680Z,64.18
2022-11-08T12:34:30.891Z,62.87
2022-11-08T12:40:23.603Z,60.88
2022-11-08T12:46:08.829Z,61.06
2022-11-08T12:51:58.701Z,60.98
2022-11-08T12:57:28.532Z,60.63
2022-11-08T13:02:57.798Z,61.28
2022-11-08T13:08:40.094Z,64.29
2022-11-08T13:14:15.217Z,65.33
2022-11-08T13:20:00.677Z,62.94
2022-11-08T13:25:24.550Z,63.01
2022-11-08T13:30:49.987Z,65.87
2022-11-08T13:36:23.408Z,65.17
2022-11-08T13:42:25.487Z,64.99
2022-11-08T13:47:58.086Z,64.81
2022-11-08T13:53:58.340Z,66.72
2022-11-08T13:59:40.241Z,68.83
2022-11-08T14:05:04.690Z,68.52
2022-11-08T14:10:48.946Z,68.57
2022-11-08T14:16:22.241Z,69.14
2022-11-08T14:21:46.726Z,69.49
2022-11-08T14:27:09.971Z,69.90
2022-11-08T14:32:34.542Z,70.22
2022-11-08T14:37:57.049Z,70.45
2022-11-08T14:43:19.882Z,71.97
2022-11-08T14:48:44.225Z,72.87
2022-11-08T14:54:08.032Z,74.71
2022-11-08T14:59:31.124Z,76.54
2022-11-08T15:04:55.440Z,77.93
2022-11-08T15:10:20.720Z,79.67
2022-11-08T15:15:47.690Z,80.84
2022-11-08T15:21:20.920Z,81.77
2022-11-08T15:26:46.593Z,82.90
2022-11-08T15:32:12.110Z,84.49
2022-11-08T15:37:46.882Z,85.10
2022-11-08T15:43:11.221Z,86.68
2022-11-08T15:48:40.987Z,88.11
2022-11-08T15:54:03.261Z,89.94
2022-11-08T15:59:30.733Z,91.61
2022-11-08T16:04:53.431Z,92.49
2022-11-08T16:10:16.748Z,94.50
2022-11-08T16:15:46.578Z,95.38
2022-11-08T16:21:09.039Z,96.52
2022-11-08T16:26:33.718Z,96.59
2022-11-08T16:31:57.012Z,96.48
2022-11-08T16:37:20.805Z,95.72
2022-11-08T16:42:43.729Z,94.77
2022-11-08T16:48:07.758Z,95.27
2022-11-08T16:53:33.207Z,95.86
2022-11-08T16:58:55.572Z,95.51
2022-11-08T17:04:17.821Z,95.43
2022-11-08T17:09:40.316Z,96.12
2022-11-08T17:15:03.022Z,97.57
2022-11-08T17:20:27.263Z,98.87
2022-11-08T17:25:50.684Z,100.00
2022-11-08T17:31:24.478Z,100.00
2022-11-08T17:36:46.724Z,100.00
2022-11-08T17:42:09.211Z,100.00
2022-11-08T17:47:32.070Z,100.00
2022-11-08T17:52:55.091Z,100.00
2022-11-08T17:58:17.734Z,100.00
2022-11-08T18:03:41.240Z,100.00
2022-11-08T18:09:03.835Z,100.00
2022-11-08T18:14:29.167Z,100.00
2022-11-08T18:19:51.665Z,100.00
2022-11-08T18:25:14.039Z,100.00
2022-11-08T18:30:36.885Z,100.00
2022-11-08T18:35:59.455Z,100.00
2022-11-08T18:41:25.616Z,100.00
2022-11-08T18:46:48.579Z,100.00
2022-11-08T18:52:10.886Z,100.00
2022-11-08T18:57:33.148Z,100.00
2022-11-08T19:02:55.343Z,100.00
2022-11-08T19:08:17.644Z,100.00
2022-11-08T19:13:43.092Z,100.00
2022-11-08T19:19:05.903Z,100.00
2022-11-08T19:24:28.326Z,100.00
2022-11-08T19:29:50.567Z,100.00
2022-11-08T19:35:13.487Z,100.00
2022-11-08T19:40:35.704Z,100.00
2022-11-08T19:45:59.769Z,100.00
2022-11-08T19:51:29.394Z,100.00
2022-11-08T19:57:06.950Z,100.00
2022-11-08T20:02:16.037Z,100.00
2022-11-08T20:07:38.532Z,100.00
2022-11-08T20:13:00.782Z,100.00
2022-11-08T20:18:23.206Z,100.00
2022-11-08T20:23:45.643Z,100.00
2022-11-08T20:29:08.466Z,100.00
2022-11-08T20:34:30.927Z,100.00
2022-11-08T20:39:53.519Z,100.00
2022-11-08T20:45:16.640Z,100.00
2022-11-08T20:50:40.377Z,100.00
2022-11-08T20:56:15.445Z,100.00
2022-11-08T21:01:42.413Z,100.00
2022-11-08T21:12:28.798Z,100.00
2022-11-08T21:17:51.530Z,100.00
2022-11-08T21:23:13.746Z,100.00
2022-11-08T21:28:36.019Z,100.00
2022-11-08T21:33:58.286Z,100.00
2022-11-08T21:39:22.105Z,100.00
2022-11-08T21:44:45.059Z,100.00
2022-11-08T21:50:07.261Z,100.00
2022-11-08T21:55:29.634Z,100.00
2022-11-08T22:00:53.576Z,100.00
2022-11-08T22:06:15.799Z,100.00
2022-11-08T22:11:38.077Z,100.00
2022-11-08T22:17:00.263Z,100.00
2022-11-08T22:22:23.070Z,100.00
2022-11-08T22:27:45.357Z,100.00
2022-11-08T22:33:07.537Z,100.00
2022-11-08T22:38:29.714Z,100.00
2022-11-08T22:43:53.350Z,100.00
2022-11-08T22:49:16.196Z,100.00
2022-11-08T22:54:38.381Z,100.00
2022-11-08T23:00:00.577Z,100.00
2022-11-08T23:05:22.914Z,100.00
2022-11-08T23:11:02.990Z,100.00
2022-11-08T23:16:38.509Z,100.00
2022-11-08T23:22:18.601Z,100.00
2022-11-08T23:27:59.732Z,100.00
2022-11-08T23:33:23.354Z,100.00
2022-11-08T23:38:45.733Z,100.00
2022-11-08T23:44:27.113Z,100.00
2022-11-08T23:49:49.494Z,100.00
2022-11-08T23:55:11.985Z,100.00
